createdAt,value
2018-11-22T12:18:04.295Z,97640.31
2018-11-22T12:22:30.522Z,97641.66
2018-11-22T12:24:59.771Z,97637.25
2018-11-22T12:27:28.568Z,97635.05
2018-11-22T12:29:57.294Z,97636.91
2018-11-22T12:32:30.643Z,97632.34
2018-11-22T12:35:00.099Z,97641.66
2018-11-22T12:37:34.099Z,97643.00
2018-11-22T12:40:02.510Z,97634.05
2018-11-22T12:42:31.380Z,97629.81
2018-11-22T12:45:03.042Z,97634.20
2018-11-22T12:47:32.309Z,97631.83
2018-11-22T12:50:02.255Z,97630.14
2018-11-22T12:52:30.732Z,97637.42
2018-11-22T12:54:59.196Z,97633.17
2018-11-22T12:57:28.309Z,97629.66
2018-11-22T12:59:57.144Z,97625.41
2018-11-22T13:02:25.450Z,97624.05
2018-11-22T13:04:54.340Z,97619.99
2018-11-22T13:07:22.556Z,97621.70
2018-11-22T13:09:51.382Z,97623.04
2018-11-22T13:12:20.726Z,97615.25
2018-11-22T13:14:49.901Z,97621.52
2018-11-22T13:17:18.787Z,97624.22
2018-11-22T13:19:47.026Z,97624.23
2018-11-22T13:22:15.156Z,97619.83
2018-11-22T13:24:43.591Z,97615.42
2018-11-22T13:28:56.744Z,97607.47
2018-11-22T13:31:25.075Z,97611.88
2018-11-22T13:33:53.780Z,97617.64
2018-11-22T13:36:22.297Z,97616.13
2018-11-22T13:38:50.775Z,97617.79
2018-11-22T13:41:18.977Z,97617.46
2018-11-22T13:43:47.378Z,97616.13
2018-11-22T13:46:17.429Z,97613.58
2018-11-22T13:48:47.454Z,97618.28
2018-11-22T13:51:16.439Z,97614.91
2018-11-22T13:53:44.775Z,97611.52
2018-11-22T13:56:13.447Z,97608.14
2018-11-22T13:58:42.186Z,97613.22
2018-11-22T14:01:10.591Z,97609.16
2018-11-22T14:03:39.614Z,97608.31
2018-11-22T14:06:08.242Z,97611.53
2018-11-22T14:08:36.466Z,97608.98
2018-11-22T14:11:52.237Z,97615.59
2018-11-22T14:14:23.188Z,97614.90
2018-11-22T14:16:51.668Z,97613.20
2018-11-22T14:19:20.062Z,97610.69
2018-11-22T14:21:48.808Z,97612.88
2018-11-22T14:24:16.963Z,97623.04
2018-11-22T14:27:02.202Z,97611.53
2018-11-22T14:29:30.693Z,97613.54
2018-11-22T14:31:58.959Z,97615.74
2018-11-22T14:34:27.265Z,97616.08
2018-11-22T14:36:55.819Z,97615.23
2018-11-22T14:39:24.549Z,97617.44
2018-11-22T14:41:53.105Z,97611.34
2018-11-22T14:44:22.215Z,97607.98
2018-11-22T14:46:50.564Z,97616.95
2018-11-22T14:49:19.078Z,97612.89
2018-11-22T14:51:48.259Z,97604.27
2018-11-22T14:57:26.804Z,97613.91
2018-11-22T14:59:55.155Z,97608.33
2018-11-22T15:02:23.610Z,97604.59
2018-11-22T15:04:51.809Z,97603.41
2018-11-22T15:07:19.953Z,97601.22
2018-11-22T15:09:48.167Z,97600.70
2018-11-22T15:12:16.544Z,97601.22
2018-11-22T15:14:45.574Z,97601.55
2018-11-22T15:17:14.030Z,97598.31
2018-11-22T15:19:43.063Z,97601.36
2018-11-22T15:22:12.958Z,97595.44
2018-11-22T15:25:20.283Z,97601.38
2018-11-22T15:27:48.800Z,97606.45
2018-11-22T15:30:18.661Z,97604.27
2018-11-22T15:33:31.837Z,97609.84
2018-11-22T15:36:00.379Z,97604.59
2018-11-22T15:38:28.555Z,97601.20
2018-11-22T15:43:38.362Z,97598.33
2018-11-22T15:46:08.457Z,97600.70
2018-11-22T15:48:37.990Z,97591.54
2018-11-22T15:51:06.956Z,97594.77
2018-11-22T15:53:35.521Z,97595.30
2018-11-22T15:56:03.879Z,97598.00
2018-11-22T15:58:32.318Z,97599.69
2018-11-22T16:01:00.990Z,97606.63
2018-11-22T16:03:29.643Z,97605.95
2018-11-22T16:05:59.149Z,97604.94
2018-11-22T16:08:27.333Z,97608.82
2018-11-22T16:10:56.231Z,97610.86
2018-11-22T16:13:24.524Z,97626.43
2018-11-22T16:15:54.118Z,97628.96
2018-11-22T16:18:22.751Z,97626.08
2018-11-22T16:20:50.958Z,97622.69
2018-11-22T16:23:19.104Z,97627.77
2018-11-22T16:25:47.522Z,97625.06
2018-11-22T16:28:15.766Z,97621.84
2018-11-22T16:30:44.175Z,97632.67
2018-11-22T16:33:12.782Z,97627.77
2018-11-22T16:35:41.133Z,97634.03
2018-11-22T16:38:09.959Z,97636.06
2018-11-22T16:40:38.387Z,97639.63
2018-11-22T16:43:07.008Z,97638.26
2018-11-22T16:45:36.432Z,97634.55
2018-11-22T16:48:13.067Z,97636.23
2018-11-22T16:50:42.702Z,97634.38
2018-11-22T16:53:11.081Z,97632.17
2018-11-22T16:55:39.702Z,97636.58
2018-11-22T16:58:08.042Z,97629.97
2018-11-22T17:02:09.607Z,97637.56
2018-11-22T17:04:38.295Z,97637.91
2018-11-22T17:08:07.957Z,97628.77
2018-11-22T17:10:36.573Z,97639.46
2018-11-22T17:13:06.104Z,97632.33
2018-11-22T17:15:35.727Z,97633.84
2018-11-22T17:18:04.776Z,97634.19
2018-11-22T17:20:33.456Z,97636.05
2018-11-22T17:23:02.281Z,97645.70
2018-11-22T17:25:32.040Z,97643.16
2018-11-22T17:28:01.737Z,97647.05
2018-11-22T17:30:33.653Z,97654.50
2018-11-22T17:33:01.965Z,97657.70
2018-11-22T17:35:31.234Z,97654.00
2018-11-22T17:38:00.814Z,97648.41
2018-11-22T17:40:31.944Z,97646.04
2018-11-22T17:43:00.746Z,97648.41
2018-11-22T17:45:33.782Z,97642.65
2018-11-22T17:50:17.763Z,97646.37
2018-11-22T17:52:46.156Z,97646.55
2018-11-22T17:55:17.255Z,97640.44
2018-11-22T17:57:45.581Z,97644.00
2018-11-22T18:00:17.824Z,97645.00
2018-11-22T18:02:47.514Z,97641.81
2018-11-22T18:05:16.021Z,97654.84
2018-11-22T18:07:45.219Z,97656.68
2018-11-22T18:10:15.309Z,97656.03
2018-11-22T18:12:44.780Z,97662.09
2018-11-22T18:15:15.096Z,97655.86
2018-11-22T18:17:44.313Z,97664.64
2018-11-22T18:20:14.407Z,97659.39
2018-11-22T18:22:44.206Z,97672.59
2018-11-22T18:25:14.673Z,97669.37
2018-11-22T18:28:58.465Z,97664.80
2018-11-22T18:32:35.453Z,97673.30
2018-11-22T18:35:03.793Z,97675.80
2018-11-22T18:37:32.529Z,97674.98
2018-11-22T18:40:00.808Z,97677.01
2018-11-22T18:43:28.815Z,97675.16
2018-11-22T18:45:57.343Z,97672.78
2018-11-22T18:48:27.356Z,97677.69
2018-11-22T18:50:56.091Z,97673.45
2018-11-22T18:53:24.916Z,97680.05
2018-11-22T18:55:53.704Z,97680.89
2018-11-22T18:58:22.699Z,97669.91
2018-11-22T19:00:51.203Z,97678.02
2018-11-22T19:03:20.197Z,97673.10
2018-11-22T19:05:49.269Z,97672.77
2018-11-22T19:08:17.732Z,97682.58
2018-11-22T19:10:46.598Z,97675.67
2018-11-22T19:13:15.782Z,97683.45
2018-11-22T19:17:29.381Z,97679.89
2018-11-22T19:19:58.089Z,97684.63
2018-11-22T19:22:26.525Z,97683.95
2018-11-22T19:24:55.412Z,97687.67
2018-11-22T19:27:24.830Z,97686.98
2018-11-22T19:29:56.145Z,97684.63
2018-11-22T19:32:24.836Z,97690.89
2018-11-22T19:34:54.066Z,97682.95
2018-11-22T19:37:22.448Z,97686.16
2018-11-22T19:39:51.085Z,97688.85
2018-11-22T19:42:19.648Z,97686.99
2018-11-22T19:44:48.996Z,97693.25
2018-11-22T19:47:17.598Z,97690.02
2018-11-22T19:49:46.909Z,97690.37
2018-11-22T19:52:15.962Z,97687.16
2018-11-22T19:54:44.939Z,97685.30
2018-11-22T19:57:16.207Z,97696.80
2018-11-22T19:59:45.763Z,97696.64
2018-11-22T20:02:14.443Z,97694.44
2018-11-22T20:04:43.097Z,97704.42
2018-11-22T20:07:12.957Z,97693.75
2018-11-22T20:09:41.817Z,97699.35
2018-11-22T20:12:10.547Z,97697.16
2018-11-22T20:15:46.275Z,97705.59
2018-11-22T20:18:15.700Z,97709.84
2018-11-22T20:20:49.594Z,97711.88
2018-11-22T20:23:13.249Z,97710.34
2018-11-22T20:25:41.708Z,97707.81
2018-11-22T20:28:10.129Z,97710.52
2018-11-22T20:30:41.528Z,97711.53
2018-11-22T20:33:10.675Z,97712.38
2018-11-22T20:35:40.188Z,97713.23
2018-11-22T20:38:08.788Z,97716.09
2018-11-22T20:40:37.351Z,97720.16
2018-11-22T20:43:06.486Z,97720.81
2018-11-22T20:45:40.780Z,97719.81
2018-11-22T20:48:06.250Z,97711.88
2018-11-22T20:50:35.078Z,97712.38
2018-11-22T20:53:03.567Z,97705.41
2018-11-22T20:55:33.658Z,97712.38
2018-11-22T20:58:03.441Z,97704.59
2018-11-22T21:00:34.302Z,97700.70
2018-11-22T21:03:02.921Z,97703.41
2018-11-22T21:05:32.835Z,97701.55
2018-11-22T21:08:01.360Z,97698.16
2018-11-22T21:10:30.968Z,97696.45
2018-11-22T21:12:59.466Z,97695.44
2018-11-22T21:15:29.863Z,97699.34
2018-11-22T21:17:59.878Z,97696.45
2018-11-22T21:20:30.863Z,97700.52
2018-11-22T21:22:59.309Z,97699.19
2018-11-22T21:25:28.211Z,97693.59
2018-11-22T21:27:56.977Z,97689.70
2018-11-22T21:30:27.448Z,97688.34
2018-11-22T21:32:56.505Z,97688.51
2018-11-22T21:35:25.996Z,97690.70
2018-11-22T21:37:56.197Z,97690.20
2018-11-22T21:40:25.540Z,97692.73
2018-11-22T21:42:54.598Z,97691.37
2018-11-22T21:45:24.185Z,97693.08
2018-11-22T21:47:52.860Z,97690.55
2018-11-22T21:50:23.802Z,97692.75
2018-11-22T21:53:50.730Z,97690.04
2018-11-22T21:56:19.484Z,97689.68
2018-11-22T21:58:47.998Z,97691.54
2018-11-22T22:01:16.453Z,97692.89
2018-11-22T22:03:45.350Z,97690.70
2018-11-22T22:06:14.310Z,97692.56
2018-11-22T22:08:42.906Z,97690.69
2018-11-22T22:11:11.780Z,97682.23
2018-11-22T22:13:40.333Z,97684.28
2018-11-22T22:16:08.818Z,97679.53
2018-11-22T22:18:37.432Z,97674.95
2018-11-22T22:21:07.543Z,97676.47
2018-11-22T22:23:36.393Z,97679.19
2018-11-22T22:26:05.216Z,97678.84
2018-11-22T22:28:34.175Z,97673.25
2018-11-22T22:31:02.902Z,97664.80
2018-11-22T22:33:31.517Z,97664.97
2018-11-22T22:36:00.128Z,97670.03
2018-11-22T22:38:28.544Z,97671.04
2018-11-22T22:42:09.316Z,97669.70
2018-11-22T22:44:38.214Z,97670.36
2018-11-22T22:47:06.589Z,97671.53
2018-11-22T22:50:52.982Z,97673.05
2018-11-22T22:53:21.711Z,97675.07
2018-11-22T22:55:50.194Z,97682.81
2018-11-22T22:58:18.641Z,97685.17
2018-11-22T23:00:47.943Z,97688.53
2018-11-22T23:03:16.971Z,97694.80
2018-11-22T23:05:45.560Z,97686.81
2018-11-22T23:08:14.137Z,97692.91
2018-11-22T23:11:30.918Z,97697.66
2018-11-22T23:14:00.333Z,97702.22
2018-11-22T23:16:28.780Z,97690.05
2018-11-22T23:18:58.862Z,97690.87
2018-11-22T23:21:27.340Z,97687.85
2018-11-22T23:23:55.907Z,97687.32
2018-11-22T23:26:24.635Z,97686.81
2018-11-22T23:28:53.609Z,97687.48
2018-11-22T23:31:22.021Z,97689.68
2018-11-22T23:33:50.616Z,97692.54
2018-11-22T23:36:19.305Z,97697.25
2018-11-22T23:38:48.362Z,97690.00
2018-11-22T23:41:18.712Z,97684.41
2018-11-22T23:43:47.221Z,97691.16
2018-11-22T23:46:15.866Z,97685.76
2018-11-22T23:48:45.058Z,97682.52
2018-11-22T23:51:14.008Z,97679.13
2018-11-22T23:53:42.637Z,97680.98
2018-11-22T23:56:11.795Z,97681.83
2018-11-22T23:58:41.551Z,97676.93
